sensor_id;sensor_type;location;lat;lon;timestamp;temperature;humidity
24217;DHT22;12356;49.386;8.688;2023-07-28T00:01:31;18.70;93.40
24217;DHT22;12356;49.386;8.688;2023-07-28T00:04:01;18.70;93.40
24217;DHT22;12356;49.386;8.688;2023-07-28T00:06:37;18.70;93.20
24217;DHT22;12356;49.386;8.688;2023-07-28T00:09:08;18.70;93.30
24217;DHT22;12356;49.386;8.688;2023-07-28T00:11:38;18.70;93.50
24217;DHT22;12356;49.386;8.688;2023-07-28T00:14:09;18.70;93.50
24217;DHT22;12356;49.386;8.688;2023-07-28T00:16:39;18.70;93.40
24217;DHT22;12356;49.386;8.688;2023-07-28T00:19:10;18.70;93.70
24217;DHT22;12356;49.386;8.688;2023-07-28T00:21:41;18.70;93.50
24217;DHT22;12356;49.386;8.688;2023-07-28T00:24:12;18.70;93.50
24217;DHT22;12356;49.386;8.688;2023-07-28T00:26:42;18.70;93.80
24217;DHT22;12356;49.386;8.688;2023-07-28T00:29:14;18.70;93.70
24217;DHT22;12356;49.386;8.688;2023-07-28T00:31:45;18.70;93.70
24217;DHT22;12356;49.386;8.688;2023-07-28T00:34:15;18.80;93.70
24217;DHT22;12356;49.386;8.688;2023-07-28T00:36:46;18.80;93.60
24217;DHT22;12356;49.386;8.688;2023-07-28T00:39:16;18.80;93.60
24217;DHT22;12356;49.386;8.688;2023-07-28T00:41:47;18.80;93.60
24217;DHT22;12356;49.386;8.688;2023-07-28T00:44:18;18.70;93.70
24217;DHT22;12356;49.386;8.688;2023-07-28T00:46:48;18.80;93.80
24217;DHT22;12356;49.386;8.688;2023-07-28T00:49:19;18.80;93.70
24217;DHT22;12356;49.386;8.688;2023-07-28T00:51:51;18.80;94.10
24217;DHT22;12356;49.386;8.688;2023-07-28T00:54:22;18.80;93.80
24217;DHT22;12356;49.386;8.688;2023-07-28T00:56:53;18.80;93.90
24217;DHT22;12356;49.386;8.688;2023-07-28T00:59:24;18.70;93.80
24217;DHT22;12356;49.386;8.688;2023-07-28T01:01:54;18.70;94.00
24217;DHT22;12356;49.386;8.688;2023-07-28T01:04:25;18.80;94.20
24217;DHT22;12356;49.386;8.688;2023-07-28T01:10:26;18.80;94.10
24217;DHT22;12356;49.386;8.688;2023-07-28T01:12:59;18.80;94.10
24217;DHT22;12356;49.386;8.688;2023-07-28T01:15:29;18.70;94.00
24217;DHT22;12356;49.386;8.688;2023-07-28T01:18:00;18.70;94.10
24217;DHT22;12356;49.386;8.688;2023-07-28T01:20:33;18.70;94.10
24217;DHT22;12356;49.386;8.688;2023-07-28T01:23:09;18.70;94.20
24217;DHT22;12356;49.386;8.688;2023-07-28T01:28:33;18.80;94.30
24217;DHT22;12356;49.386;8.688;2023-07-28T01:31:06;18.70;94.10
24217;DHT22;12356;49.386;8.688;2023-07-28T01:33:37;18.70;93.90
24217;DHT22;12356;49.386;8.688;2023-07-28T01:36:07;18.70;94.00
24217;DHT22;12356;49.386;8.688;2023-07-28T01:38:38;18.70;93.80
24217;DHT22;12356;49.386;8.688;2023-07-28T01:41:09;18.70;93.60
24217;DHT22;12356;49.386;8.688;2023-07-28T01:43:39;18.80;93.70
24217;DHT22;12356;49.386;8.688;2023-07-28T01:46:10;18.70;93.70
24217;DHT22;12356;49.386;8.688;2023-07-28T01:48:40;18.70;93.70
24217;DHT22;12356;49.386;8.688;2023-07-28T01:51:11;18.70;93.70
24217;DHT22;12356;49.386;8.688;2023-07-28T01:53:41;18.70;93.70
24217;DHT22;12356;49.386;8.688;2023-07-28T01:56:12;18.70;93.70
24217;DHT22;12356;49.386;8.688;2023-07-28T01:58:42;18.70;93.90
24217;DHT22;12356;49.386;8.688;2023-07-28T02:01:13;18.70;93.90
24217;DHT22;12356;49.386;8.688;2023-07-28T02:03:43;18.70;93.70
24217;DHT22;12356;49.386;8.688;2023-07-28T02:06:14;18.70;93.70
24217;DHT22;12356;49.386;8.688;2023-07-28T02:08:45;18.70;93.60
24217;DHT22;12356;49.386;8.688;2023-07-28T02:11:15;18.80;93.70
24217;DHT22;12356;49.386;8.688;2023-07-28T02:13:46;18.80;93.70
24217;DHT22;12356;49.386;8.688;2023-07-28T02:16:17;18.80;93.70
24217;DHT22;12356;49.386;8.688;2023-07-28T02:18:47;18.80;93.70
24217;DHT22;12356;49.386;8.688;2023-07-28T02:21:18;18.80;93.70
24217;DHT22;12356;49.386;8.688;2023-07-28T02:23:48;18.80;93.70
24217;DHT22;12356;49.386;8.688;2023-07-28T02:26:19;18.70;93.60
24217;DHT22;12356;49.386;8.688;2023-07-28T02:28:50;18.70;93.70
24217;DHT22;12356;49.386;8.688;2023-07-28T02:31:20;18.70;94.00
24217;DHT22;12356;49.386;8.688;2023-07-28T02:33:51;18.70;93.80
24217;DHT22;12356;49.386;8.688;2023-07-28T02:36:21;18.70;93.70
24217;DHT22;12356;49.386;8.688;2023-07-28T02:38:52;18.70;94.00
24217;DHT22;12356;49.386;8.688;2023-07-28T02:41:22;18.70;93.90
24217;DHT22;12356;49.386;8.688;2023-07-28T02:43:53;18.70;94.00
24217;DHT22;12356;49.386;8.688;2023-07-28T02:46:23;18.70;93.60
24217;DHT22;12356;49.386;8.688;2023-07-28T02:48:55;18.80;93.70
24217;DHT22;12356;49.386;8.688;2023-07-28T02:51:26;18.70;93.60
24217;DHT22;12356;49.386;8.688;2023-07-28T02:53:56;18.70;93.70
24217;DHT22;12356;49.386;8.688;2023-07-28T02:56:27;18.70;93.80
24217;DHT22;12356;49.386;8.688;2023-07-28T02:58:57;18.70;93.70
24217;DHT22;12356;49.386;8.688;2023-07-28T03:01:31;18.70;93.70
24217;DHT22;12356;49.386;8.688;2023-07-28T03:04:05;18.70;94.00
24217;DHT22;12356;49.386;8.688;2023-07-28T03:06:36;18.70;93.60
24217;DHT22;12356;49.386;8.688;2023-07-28T03:09:07;18.70;93.50
24217;DHT22;12356;49.386;8.688;2023-07-28T03:11:38;18.80;93.60
24217;DHT22;12356;49.386;8.688;2023-07-28T03:14:08;18.80;93.60
24217;DHT22;12356;49.386;8.688;2023-07-28T03:16:40;18.70;93.50
24217;DHT22;12356;49.386;8.688;2023-07-28T03:19:10;18.70;93.60
24217;DHT22;12356;49.386;8.688;2023-07-28T03:21:41;18.70;93.60
24217;DHT22;12356;49.386;8.688;2023-07-28T03:24:11;18.80;93.70
24217;DHT22;12356;49.386;8.688;2023-07-28T03:26:42;18.70;93.70
24217;DHT22;12356;49.386;8.688;2023-07-28T03:29:13;18.70;93.60
24217;DHT22;12356;49.386;8.688;2023-07-28T03:31:43;18.70;93.90
24217;DHT22;12356;49.386;8.688;2023-07-28T03:34:14;18.70;94.00
24217;DHT22;12356;49.386;8.688;2023-07-28T03:36:44;18.70;93.90
24217;DHT22;12356;49.386;8.688;2023-07-28T03:39:15;18.70;94.10
24217;DHT22;12356;49.386;8.688;2023-07-28T03:41:45;18.70;93.90
24217;DHT22;12356;49.386;8.688;2023-07-28T03:44:16;18.70;93.80
24217;DHT22;12356;49.386;8.688;2023-07-28T03:46:47;18.80;93.90
24217;DHT22;12356;49.386;8.688;2023-07-28T03:49:17;18.70;93.90
24217;DHT22;12356;49.386;8.688;2023-07-28T03:51:48;18.80;93.70
24217;DHT22;12356;49.386;8.688;2023-07-28T03:54:18;18.80;93.70
24217;DHT22;12356;49.386;8.688;2023-07-28T03:56:49;18.70;93.70
24217;DHT22;12356;49.386;8.688;2023-07-28T03:59:19;18.70;93.60
24217;DHT22;12356;49.386;8.688;2023-07-28T04:01:50;18.70;93.70
24217;DHT22;12356;49.386;8.688;2023-07-28T04:04:20;18.80;93.70
24217;DHT22;12356;49.386;8.688;2023-07-28T04:06:51;18.70;93.60
24217;DHT22;12356;49.386;8.688;2023-07-28T04:09:24;18.70;93.60
24217;DHT22;12356;49.386;8.688;2023-07-28T04:11:54;18.70;93.60
24217;DHT22;12356;49.386;8.688;2023-07-28T04:14:25;18.70;93.60
24217;DHT22;12356;49.386;8.688;2023-07-28T04:16:55;18.70;93.70
24217;DHT22;12356;49.386;8.688;2023-07-28T04:19:26;18.70;93.60
24217;DHT22;12356;49.386;8.688;2023-07-28T04:21:57;18.70;93.60
24217;DHT22;12356;49.386;8.688;2023-07-28T04:24:28;18.70;93.60
24217;DHT22;12356;49.386;8.688;2023-07-28T04:26:58;18.70;93.60
24217;DHT22;12356;49.386;8.688;2023-07-28T04:29:29;18.70;93.60
24217;DHT22;12356;49.386;8.688;2023-07-28T04:31:59;18.70;93.60
24217;DHT22;12356;49.386;8.688;2023-07-28T04:34:33;18.60;93.60
24217;DHT22;12356;49.386;8.688;2023-07-28T04:37:04;18.70;93.90
24217;DHT22;12356;49.386;8.688;2023-07-28T04:39:34;18.70;93.80
24217;DHT22;12356;49.386;8.688;2023-07-28T04:42:05;18.60;93.80
24217;DHT22;12356;49.386;8.688;2023-07-28T04:44:37;18.60;93.70
24217;DHT22;12356;49.386;8.688;2023-07-28T04:47:08;18.60;93.90
24217;DHT22;12356;49.386;8.688;2023-07-28T04:49:38;18.70;93.90
24217;DHT22;12356;49.386;8.688;2023-07-28T04:52:09;18.70;93.70
24217;DHT22;12356;49.386;8.688;2023-07-28T04:54:39;18.70;93.70
24217;DHT22;12356;49.386;8.688;2023-07-28T04:57:10;18.70;93.70
24217;DHT22;12356;49.386;8.688;2023-07-28T04:59:41;18.70;93.70
24217;DHT22;12356;49.386;8.688;2023-07-28T05:02:13;18.70;93.70
24217;DHT22;12356;49.386;8.688;2023-07-28T05:04:43;18.70;93.70
24217;DHT22;12356;49.386;8.688;2023-07-28T05:07:14;18.70;93.70
24217;DHT22;12356;49.386;8.688;2023-07-28T05:09:45;18.70;93.80
24217;DHT22;12356;49.386;8.688;2023-07-28T05:12:15;18.70;94.00
24217;DHT22;12356;49.386;8.688;2023-07-28T05:14:46;18.70;94.00
24217;DHT22;12356;49.386;8.688;2023-07-28T05:17:17;18.70;94.10
24217;DHT22;12356;49.386;8.688;2023-07-28T05:19:47;18.70;94.20
24217;DHT22;12356;49.386;8.688;2023-07-28T05:22:18;18.70;94.20
24217;DHT22;12356;49.386;8.688;2023-07-28T05:24:48;18.70;94.00
24217;DHT22;12356;49.386;8.688;2023-07-28T05:27:19;18.70;94.10
24217;DHT22;12356;49.386;8.688;2023-07-28T05:29:49;18.70;94.10
24217;DHT22;12356;49.386;8.688;2023-07-28T05:32:20;18.70;94.10
24217;DHT22;12356;49.386;8.688;2023-07-28T05:34:50;18.70;94.20
24217;DHT22;12356;49.386;8.688;2023-07-28T05:37:21;18.70;94.20
24217;DHT22;12356;49.386;8.688;2023-07-28T05:39:51;18.80;94.10
24217;DHT22;12356;49.386;8.688;2023-07-28T05:42:22;18.80;94.10
24217;DHT22;12356;49.386;8.688;2023-07-28T05:44:54;18.80;94.10
24217;DHT22;12356;49.386;8.688;2023-07-28T05:47:25;18.70;94.00
24217;DHT22;12356;49.386;8.688;2023-07-28T05:49:56;18.70;94.00
24217;DHT22;12356;49.386;8.688;2023-07-28T05:52:26;18.80;94.20
24217;DHT22;12356;49.386;8.688;2023-07-28T05:54:57;18.80;94.10
24217;DHT22;12356;49.386;8.688;2023-07-28T05:57:27;18.80;94.20
24217;DHT22;12356;49.386;8.688;2023-07-28T05:59:58;18.80;94.00
24217;DHT22;12356;49.386;8.688;2023-07-28T06:02:28;18.70;93.90
24217;DHT22;12356;49.386;8.688;2023-07-28T06:04:59;18.80;94.20
24217;DHT22;12356;49.386;8.688;2023-07-28T06:07:29;18.80;94.30
24217;DHT22;12356;49.386;8.688;2023-07-28T06:10:00;18.80;94.30
24217;DHT22;12356;49.386;8.688;2023-07-28T06:12:30;18.80;94.40
24217;DHT22;12356;49.386;8.688;2023-07-28T06:15:01;18.80;94.30
24217;DHT22;12356;49.386;8.688;2023-07-28T06:17:31;18.80;94.40
24217;DHT22;12356;49.386;8.688;2023-07-28T06:20:02;18.80;94.40
24217;DHT22;12356;49.386;8.688;2023-07-28T06:22:33;18.80;94.40
24217;DHT22;12356;49.386;8.688;2023-07-28T06:25:04;18.80;94.30
24217;DHT22;12356;49.386;8.688;2023-07-28T06:27:34;18.80;94.40
24217;DHT22;12356;49.386;8.688;2023-07-28T06:30:06;18.80;94.60
24217;DHT22;12356;49.386;8.688;2023-07-28T06:32:37;18.90;94.70
24217;DHT22;12356;49.386;8.688;2023-07-28T06:35:07;18.90;94.70
24217;DHT22;12356;49.386;8.688;2023-07-28T06:37:39;18.90;94.80
24217;DHT22;12356;49.386;8.688;2023-07-28T06:40:10;18.90;95.00
24217;DHT22;12356;49.386;8.688;2023-07-28T06:42:40;18.90;94.90
24217;DHT22;12356;49.386;8.688;2023-07-28T06:45:12;18.90;94.90
24217;DHT22;12356;49.386;8.688;2023-07-28T06:47:42;19.00;94.70
24217;DHT22;12356;49.386;8.688;2023-07-28T06:50:13;19.00;94.70
24217;DHT22;12356;49.386;8.688;2023-07-28T06:52:44;19.00;94.80
24217;DHT22;12356;49.386;8.688;2023-07-28T06:55:16;19.00;94.70
24217;DHT22;12356;49.386;8.688;2023-07-28T06:57:46;19.00;94.60
24217;DHT22;12356;49.386;8.688;2023-07-28T07:00:17;18.90;94.50
24217;DHT22;12356;49.386;8.688;2023-07-28T07:02:50;19.00;94.60
24217;DHT22;12356;49.386;8.688;2023-07-28T07:05:21;19.00;94.60
24217;DHT22;12356;49.386;8.688;2023-07-28T07:07:52;19.00;94.60
24217;DHT22;12356;49.386;8.688;2023-07-28T07:10:23;19.00;94.50
24217;DHT22;12356;49.386;8.688;2023-07-28T07:12:53;19.00;94.60
24217;DHT22;12356;49.386;8.688;2023-07-28T07:15:24;19.00;94.60
24217;DHT22;12356;49.386;8.688;2023-07-28T07:17:54;19.00;94.80
24217;DHT22;12356;49.386;8.688;2023-07-28T07:20:26;19.00;94.70
24217;DHT22;12356;49.386;8.688;2023-07-28T07:22:56;19.10;94.90
24217;DHT22;12356;49.386;8.688;2023-07-28T07:25:27;19.10;94.90
24217;DHT22;12356;49.386;8.688;2023-07-28T07:27:57;19.10;94.90
24217;DHT22;12356;49.386;8.688;2023-07-28T07:30:28;19.10;94.80
24217;DHT22;12356;49.386;8.688;2023-07-28T07:32:58;19.10;95.00
24217;DHT22;12356;49.386;8.688;2023-07-28T07:35:29;19.10;94.90
24217;DHT22;12356;49.386;8.688;2023-07-28T07:37:59;19.10;95.00
24217;DHT22;12356;49.386;8.688;2023-07-28T07:40:30;19.10;95.20
24217;DHT22;12356;49.386;8.688;2023-07-28T07:43:01;19.20;95.30
24217;DHT22;12356;49.386;8.688;2023-07-28T07:45:33;19.20;95.50
24217;DHT22;12356;49.386;8.688;2023-07-28T07:48:04;19.20;95.80
24217;DHT22;12356;49.386;8.688;2023-07-28T07:50:34;19.20;96.00
24217;DHT22;12356;49.386;8.688;2023-07-28T07:53:05;19.30;96.30
24217;DHT22;12356;49.386;8.688;2023-07-28T07:55:35;19.30;96.60
24217;DHT22;12356;49.386;8.688;2023-07-28T07:58:06;19.30;96.50
24217;DHT22;12356;49.386;8.688;2023-07-28T08:00:38;19.30;96.30
24217;DHT22;12356;49.386;8.688;2023-07-28T08:03:09;19.30;96.30
24217;DHT22;12356;49.386;8.688;2023-07-28T08:05:40;19.30;96.30
24217;DHT22;12356;49.386;8.688;2023-07-28T08:08:11;19.30;96.20
24217;DHT22;12356;49.386;8.688;2023-07-28T08:10:41;19.30;96.30
24217;DHT22;12356;49.386;8.688;2023-07-28T08:13:12;19.30;96.20
24217;DHT22;12356;49.386;8.688;2023-07-28T08:15:43;19.30;96.30
24217;DHT22;12356;49.386;8.688;2023-07-28T08:18:14;19.40;96.30
24217;DHT22;12356;49.386;8.688;2023-07-28T08:20:45;19.30;96.30
24217;DHT22;12356;49.386;8.688;2023-07-28T08:23:16;19.40;96.30
24217;DHT22;12356;49.386;8.688;2023-07-28T08:25:46;19.40;96.20
24217;DHT22;12356;49.386;8.688;2023-07-28T08:28:17;19.40;96.10
24217;DHT22;12356;49.386;8.688;2023-07-28T08:30:57;19.40;95.90
24217;DHT22;12356;49.386;8.688;2023-07-28T08:33:28;19.40;96.00
24217;DHT22;12356;49.386;8.688;2023-07-28T08:35:58;19.40;96.10
24217;DHT22;12356;49.386;8.688;2023-07-28T08:38:29;19.40;96.10
24217;DHT22;12356;49.386;8.688;2023-07-28T08:40:59;19.40;96.00
24217;DHT22;12356;49.386;8.688;2023-07-28T08:43:30;19.40;96.10
24217;DHT22;12356;49.386;8.688;2023-07-28T08:46:01;19.40;96.10
24217;DHT22;12356;49.386;8.688;2023-07-28T08:48:33;19.50;96.20
24217;DHT22;12356;49.386;8.688;2023-07-28T08:51:04;19.50;96.20
24217;DHT22;12356;49.386;8.688;2023-07-28T08:53:35;19.50;96.20
24217;DHT22;12356;49.386;8.688;2023-07-28T08:56:06;19.50;96.20
24217;DHT22;12356;49.386;8.688;2023-07-28T08:58:36;19.50;96.20
24217;DHT22;12356;49.386;8.688;2023-07-28T09:01:07;19.60;96.40
24217;DHT22;12356;49.386;8.688;2023-07-28T09:03:41;19.60;96.80
24217;DHT22;12356;49.386;8.688;2023-07-28T09:06:12;19.60;96.40
24217;DHT22;12356;49.386;8.688;2023-07-28T09:08:43;19.60;96.50
24217;DHT22;12356;49.386;8.688;2023-07-28T09:11:14;19.70;96.50
24217;DHT22;12356;49.386;8.688;2023-07-28T09:13:44;19.70;96.50
24217;DHT22;12356;49.386;8.688;2023-07-28T09:16:19;19.70;96.40
24217;DHT22;12356;49.386;8.688;2023-07-28T09:18:49;19.80;96.50
24217;DHT22;12356;49.386;8.688;2023-07-28T09:21:21;19.80;96.70
24217;DHT22;12356;49.386;8.688;2023-07-28T09:23:51;19.80;96.40
24217;DHT22;12356;49.386;8.688;2023-07-28T09:26:22;19.90;96.60
24217;DHT22;12356;49.386;8.688;2023-07-28T09:28:53;19.90;96.90
24217;DHT22;12356;49.386;8.688;2023-07-28T09:31:29;20.00;97.20
24217;DHT22;12356;49.386;8.688;2023-07-28T09:34:01;20.10;97.70
24217;DHT22;12356;49.386;8.688;2023-07-28T09:36:32;20.20;97.90
24217;DHT22;12356;49.386;8.688;2023-07-28T09:39:04;20.30;97.90
24217;DHT22;12356;49.386;8.688;2023-07-28T09:41:38;20.40;97.80
24217;DHT22;12356;49.386;8.688;2023-07-28T09:44:08;20.40;97.70
24217;DHT22;12356;49.386;8.688;2023-07-28T09:46:50;20.50;97.70
24217;DHT22;12356;49.386;8.688;2023-07-28T09:49:34;20.50;97.50
24217;DHT22;12356;49.386;8.688;2023-07-28T09:52:09;20.60;97.10
24217;DHT22;12356;49.386;8.688;2023-07-28T09:54:40;20.60;96.40
24217;DHT22;12356;49.386;8.688;2023-07-28T09:57:19;20.60;96.10
24217;DHT22;12356;49.386;8.688;2023-07-28T09:59:52;20.60;95.70
24217;DHT22;12356;49.386;8.688;2023-07-28T10:02:24;20.50;95.40
24217;DHT22;12356;49.386;8.688;2023-07-28T10:04:55;20.50;95.20
24217;DHT22;12356;49.386;8.688;2023-07-28T10:07:26;20.50;94.90
24217;DHT22;12356;49.386;8.688;2023-07-28T10:09:57;20.50;91.40
24217;DHT22;12356;49.386;8.688;2023-07-28T10:12:28;20.50;90.80
24217;DHT22;12356;49.386;8.688;2023-07-28T10:15:03;20.50;90.60
24217;DHT22;12356;49.386;8.688;2023-07-28T10:17:35;20.50;90.00
24217;DHT22;12356;49.386;8.688;2023-07-28T10:20:06;20.50;90.00
24217;DHT22;12356;49.386;8.688;2023-07-28T10:22:45;20.40;90.00
24217;DHT22;12356;49.386;8.688;2023-07-28T10:25:22;20.40;90.10
24217;DHT22;12356;49.386;8.688;2023-07-28T10:27:53;20.50;90.00
24217;DHT22;12356;49.386;8.688;2023-07-28T10:30:24;20.50;89.80
24217;DHT22;12356;49.386;8.688;2023-07-28T10:32:55;20.50;88.90
24217;DHT22;12356;49.386;8.688;2023-07-28T10:35:26;20.60;89.70
24217;DHT22;12356;49.386;8.688;2023-07-28T10:37:57;20.60;87.20
24217;DHT22;12356;49.386;8.688;2023-07-28T10:40:33;20.60;80.90
24217;DHT22;12356;49.386;8.688;2023-07-28T10:43:09;20.70;78.80
24217;DHT22;12356;49.386;8.688;2023-07-28T10:45:39;20.70;80.00
24217;DHT22;12356;49.386;8.688;2023-07-28T10:48:12;20.80;82.10
24217;DHT22;12356;49.386;8.688;2023-07-28T10:50:43;20.80;80.20
24217;DHT22;12356;49.386;8.688;2023-07-28T10:53:14;20.80;81.70
24217;DHT22;12356;49.386;8.688;2023-07-28T10:55:45;20.80;82.00
24217;DHT22;12356;49.386;8.688;2023-07-28T10:58:15;20.80;81.60
24217;DHT22;12356;49.386;8.688;2023-07-28T11:00:46;20.70;81.40
24217;DHT22;12356;49.386;8.688;2023-07-28T11:03:16;20.70;81.60
24217;DHT22;12356;49.386;8.688;2023-07-28T11:05:48;20.70;81.40
24217;DHT22;12356;49.386;8.688;2023-07-28T11:08:19;20.70;81.50
24217;DHT22;12356;49.386;8.688;2023-07-28T11:10:50;20.60;81.00
24217;DHT22;12356;49.386;8.688;2023-07-28T11:13:21;20.60;81.70
24217;DHT22;12356;49.386;8.688;2023-07-28T11:15:52;20.60;81.60
24217;DHT22;12356;49.386;8.688;2023-07-28T11:18:25;20.60;81.20
24217;DHT22;12356;49.386;8.688;2023-07-28T11:20:56;20.50;81.90
24217;DHT22;12356;49.386;8.688;2023-07-28T11:23:27;20.60;83.10
24217;DHT22;12356;49.386;8.688;2023-07-28T11:25:59;20.50;84.50
24217;DHT22;12356;49.386;8.688;2023-07-28T11:28:30;20.50;85.30
24217;DHT22;12356;49.386;8.688;2023-07-28T11:31:01;20.50;84.90
24217;DHT22;12356;49.386;8.688;2023-07-28T11:33:31;20.50;84.70
24217;DHT22;12356;49.386;8.688;2023-07-28T11:36:02;20.50;84.40
24217;DHT22;12356;49.386;8.688;2023-07-28T11:38:34;20.50;84.70
24217;DHT22;12356;49.386;8.688;2023-07-28T11:41:05;20.50;85.80
24217;DHT22;12356;49.386;8.688;2023-07-28T11:43:37;20.50;86.70
24217;DHT22;12356;49.386;8.688;2023-07-28T11:49:14;20.50;86.20
24217;DHT22;12356;49.386;8.688;2023-07-28T11:51:48;20.50;84.20
24217;DHT22;12356;49.386;8.688;2023-07-28T11:54:21;20.60;83.70
24217;DHT22;12356;49.386;8.688;2023-07-28T11:56:55;20.50;83.40
24217;DHT22;12356;49.386;8.688;2023-07-28T11:59:26;20.60;83.80
24217;DHT22;12356;49.386;8.688;2023-07-28T12:01:59;20.60;83.40
24217;DHT22;12356;49.386;8.688;2023-07-28T12:04:40;20.60;84.50
24217;DHT22;12356;49.386;8.688;2023-07-28T12:07:14;20.70;85.50
24217;DHT22;12356;49.386;8.688;2023-07-28T12:12:19;20.70;86.30
24217;DHT22;12356;49.386;8.688;2023-07-28T12:14:50;20.60;85.40
24217;DHT22;12356;49.386;8.688;2023-07-28T12:17:25;20.60;84.50
24217;DHT22;12356;49.386;8.688;2023-07-28T12:19:59;20.70;83.70
24217;DHT22;12356;49.386;8.688;2023-07-28T12:22:31;20.70;83.80
24217;DHT22;12356;49.386;8.688;2023-07-28T12:25:01;20.70;83.90
24217;DHT22;12356;49.386;8.688;2023-07-28T12:27:32;20.70;82.20
24217;DHT22;12356;49.386;8.688;2023-07-28T12:30:03;20.70;83.20
24217;DHT22;12356;49.386;8.688;2023-07-28T12:32:34;20.70;82.00
24217;DHT22;12356;49.386;8.688;2023-07-28T12:35:05;20.70;81.70
24217;DHT22;12356;49.386;8.688;2023-07-28T12:37:36;20.70;81.90
24217;DHT22;12356;49.386;8.688;2023-07-28T12:40:07;20.70;81.80
24217;DHT22;12356;49.386;8.688;2023-07-28T12:42:38;20.70;82.10
24217;DHT22;12356;49.386;8.688;2023-07-28T12:45:09;20.60;82.60
24217;DHT22;12356;49.386;8.688;2023-07-28T12:47:42;20.60;83.30
24217;DHT22;12356;49.386;8.688;2023-07-28T12:50:13;20.60;84.60
24217;DHT22;12356;49.386;8.688;2023-07-28T12:52:44;20.60;86.50
24217;DHT22;12356;49.386;8.688;2023-07-28T12:55:14;20.60;87.30
24217;DHT22;12356;49.386;8.688;2023-07-28T12:57:46;20.50;87.80
24217;DHT22;12356;49.386;8.688;2023-07-28T13:00:18;20.40;87.80
24217;DHT22;12356;49.386;8.688;2023-07-28T13:02:49;20.50;88.90
24217;DHT22;12356;49.386;8.688;2023-07-28T13:05:20;20.40;89.00
24217;DHT22;12356;49.386;8.688;2023-07-28T13:07:50;20.40;89.50
24217;DHT22;12356;49.386;8.688;2023-07-28T13:10:21;20.30;89.40
24217;DHT22;12356;49.386;8.688;2023-07-28T13:12:51;20.30;88.80
24217;DHT22;12356;49.386;8.688;2023-07-28T13:15:22;20.20;89.10
24217;DHT22;12356;49.386;8.688;2023-07-28T13:17:52;20.20;89.40
24217;DHT22;12356;49.386;8.688;2023-07-28T13:20:23;20.20;90.00
24217;DHT22;12356;49.386;8.688;2023-07-28T13:22:53;20.20;89.80
24217;DHT22;12356;49.386;8.688;2023-07-28T13:25:24;20.20;90.10
24217;DHT22;12356;49.386;8.688;2023-07-28T13:27:54;20.20;90.30
24217;DHT22;12356;49.386;8.688;2023-07-28T13:30:25;20.20;90.80
24217;DHT22;12356;49.386;8.688;2023-07-28T13:32:56;20.20;91.10
24217;DHT22;12356;49.386;8.688;2023-07-28T13:35:26;20.20;91.50
24217;DHT22;12356;49.386;8.688;2023-07-28T13:37:57;20.10;91.60
24217;DHT22;12356;49.386;8.688;2023-07-28T13:40:27;20.10;91.70
24217;DHT22;12356;49.386;8.688;2023-07-28T13:42:58;20.10;91.70
24217;DHT22;12356;49.386;8.688;2023-07-28T13:45:28;20.20;91.90
24217;DHT22;12356;49.386;8.688;2023-07-28T13:48:00;20.20;92.00
24217;DHT22;12356;49.386;8.688;2023-07-28T13:50:30;20.10;92.20
24217;DHT22;12356;49.386;8.688;2023-07-28T13:53:01;20.10;92.60
24217;DHT22;12356;49.386;8.688;2023-07-28T13:55:31;20.10;92.60
24217;DHT22;12356;49.386;8.688;2023-07-28T13:58:02;20.10;92.80
24217;DHT22;12356;49.386;8.688;2023-07-28T14:00:32;20.10;93.10
24217;DHT22;12356;49.386;8.688;2023-07-28T14:03:03;20.20;93.20
24217;DHT22;12356;49.386;8.688;2023-07-28T14:05:34;20.10;93.20
24217;DHT22;12356;49.386;8.688;2023-07-28T14:08:04;20.20;93.30
24217;DHT22;12356;49.386;8.688;2023-07-28T14:10:36;20.20;93.70
24217;DHT22;12356;49.386;8.688;2023-07-28T14:13:08;20.20;94.20
24217;DHT22;12356;49.386;8.688;2023-07-28T14:15:39;20.10;93.90
24217;DHT22;12356;49.386;8.688;2023-07-28T14:18:09;20.10;94.00
24217;DHT22;12356;49.386;8.688;2023-07-28T14:20:40;20.10;93.90
24217;DHT22;12356;49.386;8.688;2023-07-28T14:23:24;20.20;94.00
24217;DHT22;12356;49.386;8.688;2023-07-28T14:25:55;20.10;94.00
24217;DHT22;12356;49.386;8.688;2023-07-28T14:28:26;20.10;93.90
24217;DHT22;12356;49.386;8.688;2023-07-28T14:30:56;20.10;93.90
24217;DHT22;12356;49.386;8.688;2023-07-28T14:33:27;20.00;93.70
24217;DHT22;12356;49.386;8.688;2023-07-28T14:35:58;20.00;93.70
24217;DHT22;12356;49.386;8.688;2023-07-28T14:38:29;20.00;93.60
24217;DHT22;12356;49.386;8.688;2023-07-28T14:40:59;20.00;93.50
24217;DHT22;12356;49.386;8.688;2023-07-28T14:43:30;19.90;93.40
24217;DHT22;12356;49.386;8.688;2023-07-28T14:46:00;19.90;93.50
24217;DHT22;12356;49.386;8.688;2023-07-28T14:48:31;19.90;93.50
24217;DHT22;12356;49.386;8.688;2023-07-28T14:51:02;20.00;93.60
24217;DHT22;12356;49.386;8.688;2023-07-28T14:53:35;19.90;93.70
24217;DHT22;12356;49.386;8.688;2023-07-28T14:56:06;19.90;94.00
24217;DHT22;12356;49.386;8.688;2023-07-28T14:58:36;19.90;94.10
24217;DHT22;12356;49.386;8.688;2023-07-28T15:01:09;19.90;94.50
24217;DHT22;12356;49.386;8.688;2023-07-28T15:03:40;20.00;94.60
24217;DHT22;12356;49.386;8.688;2023-07-28T15:06:11;20.00;94.90
24217;DHT22;12356;49.386;8.688;2023-07-28T15:08:41;20.00;95.00
24217;DHT22;12356;49.386;8.688;2023-07-28T15:11:12;20.00;95.20
24217;DHT22;12356;49.386;8.688;2023-07-28T15:13:43;20.00;95.20
24217;DHT22;12356;49.386;8.688;2023-07-28T15:16:13;20.00;95.10
24217;DHT22;12356;49.386;8.688;2023-07-28T15:18:44;20.00;95.00
24217;DHT22;12356;49.386;8.688;2023-07-28T15:21:14;20.00;95.10
24217;DHT22;12356;49.386;8.688;2023-07-28T15:23:45;20.00;95.10
24217;DHT22;12356;49.386;8.688;2023-07-28T15:26:23;20.00;94.90
24217;DHT22;12356;49.386;8.688;2023-07-28T15:28:53;20.00;94.90
24217;DHT22;12356;49.386;8.688;2023-07-28T15:31:27;20.00;95.00
24217;DHT22;12356;49.386;8.688;2023-07-28T15:33:57;20.00;94.90
24217;DHT22;12356;49.386;8.688;2023-07-28T15:36:28;20.00;94.90
24217;DHT22;12356;49.386;8.688;2023-07-28T15:38:58;20.00;95.00
24217;DHT22;12356;49.386;8.688;2023-07-28T15:41:29;20.00;95.10
24217;DHT22;12356;49.386;8.688;2023-07-28T15:44:00;20.00;95.30
24217;DHT22;12356;49.386;8.688;2023-07-28T15:46:30;20.00;95.40
24217;DHT22;12356;49.386;8.688;2023-07-28T15:49:01;20.00;95.40
24217;DHT22;12356;49.386;8.688;2023-07-28T15:51:31;20.00;95.40
24217;DHT22;12356;49.386;8.688;2023-07-28T15:54:02;20.00;95.40
24217;DHT22;12356;49.386;8.688;2023-07-28T15:56:32;20.00;95.40
24217;DHT22;12356;49.386;8.688;2023-07-28T15:59:03;20.00;95.40
24217;DHT22;12356;49.386;8.688;2023-07-28T16:01:34;20.00;95.50
24217;DHT22;12356;49.386;8.688;2023-07-28T16:04:04;20.00;95.50
24217;DHT22;12356;49.386;8.688;2023-07-28T16:06:35;20.00;95.40